Westerville, Iowa
Current Conditions -  °F | °C
As of 7:53 AM on Thursday 23 Oct 2014 (Local Time) from KLWD Reporting Station
Light Rain Light Rain  
Wind Chill: 51°   Ceiling: 500
Heat Index: 51°   Visibility: 10mi
Dew Point: 48°   Wind: 8mph
Humidity: 89%   Direction: 190°S
Pressure: 30.05"   Gusts: NA
Location:  40.8106°N, 93.9578°W
Report Text: KLWD 231253Z AUTO 19007KT 10SM -RA BKN005 OVC090 11/09 A3005 RMK AO2 SLP178 P0000 T01060089
Loading
Personal Weather Stations






























Interactive Weather Map
Tropical Storm Tracking
New forecast layout! Learn more

10-Day Weather Forecast

Advertisements
Track Severe Weather on mobile